sensor_id;sensor_type;location;lat;lon;timestamp;P1;durP1;ratioP1;P2;durP2;ratioP2
48076;SDS011;33854;57.708;12.008;2023-02-28T00:00:32;4.85;;;2.85;;
48076;SDS011;33854;57.708;12.008;2023-02-28T00:02:57;7.50;;;3.33;;
48076;SDS011;33854;57.708;12.008;2023-02-28T00:05:24;7.67;;;2.87;;
48076;SDS011;33854;57.708;12.008;2023-02-28T00:07:50;10.25;;;3.25;;
48076;SDS011;33854;57.708;12.008;2023-02-28T00:10:17;5.23;;;2.93;;
48076;SDS011;33854;57.708;12.008;2023-02-28T00:12:46;7.32;;;2.83;;
48076;SDS011;33854;57.708;12.008;2023-02-28T00:15:12;9.38;;;3.67;;
48076;SDS011;33854;57.708;12.008;2023-02-28T00:17:38;9.40;;;3.13;;
48076;SDS011;33854;57.708;12.008;2023-02-28T00:20:04;4.13;;;2.53;;
48076;SDS011;33854;57.708;12.008;2023-02-28T00:22:33;8.13;;;3.08;;
48076;SDS011;33854;57.708;12.008;2023-02-28T00:24:59;7.13;;;2.95;;
48076;SDS011;33854;57.708;12.008;2023-02-28T00:27:25;11.77;;;3.13;;
48076;SDS011;33854;57.708;12.008;2023-02-28T00:29:50;9.53;;;3.37;;
48076;SDS011;33854;57.708;12.008;2023-02-28T00:32:16;10.57;;;2.93;;
48076;SDS011;33854;57.708;12.008;2023-02-28T00:37:08;6.50;;;3.07;;
48076;SDS011;33854;57.708;12.008;2023-02-28T00:39:37;12.25;;;2.97;;
48076;SDS011;33854;57.708;12.008;2023-02-28T00:42:03;6.32;;;2.63;;
48076;SDS011;33854;57.708;12.008;2023-02-28T00:44:29;13.02;;;3.60;;
48076;SDS011;33854;57.708;12.008;2023-02-28T00:46:55;9.55;;;3.55;;
48076;SDS011;33854;57.708;12.008;2023-02-28T00:49:21;7.07;;;3.00;;
48076;SDS011;33854;57.708;12.008;2023-02-28T00:51:47;6.05;;;3.25;;
48076;SDS011;33854;57.708;12.008;2023-02-28T00:54:13;7.07;;;3.20;;
48076;SDS011;33854;57.708;12.008;2023-02-28T00:56:39;7.77;;;3.13;;
48076;SDS011;33854;57.708;12.008;2023-02-28T00:59:04;11.63;;;3.83;;
48076;SDS011;33854;57.708;12.008;2023-02-28T01:01:30;13.43;;;3.67;;
48076;SDS011;33854;57.708;12.008;2023-02-28T01:03:55;5.20;;;3.60;;
48076;SDS011;33854;57.708;12.008;2023-02-28T01:06:21;7.33;;;2.90;;
48076;SDS011;33854;57.708;12.008;2023-02-28T01:08:47;12.70;;;3.50;;
48076;SDS011;33854;57.708;12.008;2023-02-28T01:11:13;11.80;;;4.07;;
48076;SDS011;33854;57.708;12.008;2023-02-28T01:13:41;7.50;;;3.25;;
48076;SDS011;33854;57.708;12.008;2023-02-28T01:16:07;5.78;;;3.83;;
48076;SDS011;33854;57.708;12.008;2023-02-28T01:18:32;5.60;;;2.97;;
48076;SDS011;33854;57.708;12.008;2023-02-28T01:20:58;7.70;;;4.13;;
48076;SDS011;33854;57.708;12.008;2023-02-28T01:23:28;8.73;;;3.70;;
48076;SDS011;33854;57.708;12.008;2023-02-28T01:25:54;6.77;;;3.37;;
48076;SDS011;33854;57.708;12.008;2023-02-28T01:28:20;6.65;;;3.30;;
48076;SDS011;33854;57.708;12.008;2023-02-28T01:30:49;9.18;;;3.30;;
48076;SDS011;33854;57.708;12.008;2023-02-28T01:33:16;5.00;;;2.80;;
48076;SDS011;33854;57.708;12.008;2023-02-28T01:35:41;5.00;;;3.20;;
48076;SDS011;33854;57.708;12.008;2023-02-28T01:38:07;4.50;;;3.00;;
48076;SDS011;33854;57.708;12.008;2023-02-28T01:40:32;16.97;;;4.93;;
48076;SDS011;33854;57.708;12.008;2023-02-28T01:42:58;8.40;;;2.83;;
48076;SDS011;33854;57.708;12.008;2023-02-28T01:45:25;8.03;;;3.47;;
48076;SDS011;33854;57.708;12.008;2023-02-28T01:48:03;9.02;;;2.85;;
48076;SDS011;33854;57.708;12.008;2023-02-28T01:50:33;8.75;;;2.67;;
48076;SDS011;33854;57.708;12.008;2023-02-28T01:53:02;5.28;;;2.78;;
48076;SDS011;33854;57.708;12.008;2023-02-28T01:55:31;6.72;;;2.88;;
48076;SDS011;33854;57.708;12.008;2023-02-28T01:57:58;13.77;;;3.35;;
48076;SDS011;33854;57.708;12.008;2023-02-28T02:00:27;6.85;;;2.78;;
48076;SDS011;33854;57.708;12.008;2023-02-28T02:02:55;7.03;;;3.10;;
48076;SDS011;33854;57.708;12.008;2023-02-28T02:05:25;5.95;;;3.20;;
48076;SDS011;33854;57.708;12.008;2023-02-28T02:08:12;6.00;;;2.85;;
48076;SDS011;33854;57.708;12.008;2023-02-28T02:15:45;5.72;;;2.90;;
48076;SDS011;33854;57.708;12.008;2023-02-28T02:21:11;5.95;;;2.90;;
48076;SDS011;33854;57.708;12.008;2023-02-28T02:24:03;5.80;;;2.90;;
48076;SDS011;33854;57.708;12.008;2023-02-28T02:26:58;5.05;;;2.92;;
48076;SDS011;33854;57.708;12.008;2023-02-28T02:32:28;6.20;;;3.03;;
48076;SDS011;33854;57.708;12.008;2023-02-28T02:35:23;4.05;;;2.83;;
48076;SDS011;33854;57.708;12.008;2023-02-28T02:40:34;5.30;;;2.75;;
48076;SDS011;33854;57.708;12.008;2023-02-28T02:45:38;9.45;;;2.60;;
48076;SDS011;33854;57.708;12.008;2023-02-28T02:48:11;6.07;;;2.90;;
48076;SDS011;33854;57.708;12.008;2023-02-28T02:50:42;3.92;;;2.20;;
48076;SDS011;33854;57.708;12.008;2023-02-28T02:53:10;6.53;;;2.80;;
48076;SDS011;33854;57.708;12.008;2023-02-28T02:55:41;6.57;;;2.83;;
48076;SDS011;33854;57.708;12.008;2023-02-28T02:58:13;6.03;;;2.75;;
48076;SDS011;33854;57.708;12.008;2023-02-28T03:00:46;9.82;;;2.90;;
48076;SDS011;33854;57.708;12.008;2023-02-28T03:03:21;6.45;;;2.65;;
48076;SDS011;33854;57.708;12.008;2023-02-28T03:05:54;5.63;;;2.45;;
48076;SDS011;33854;57.708;12.008;2023-02-28T03:08:21;4.22;;;2.50;;
48076;SDS011;33854;57.708;12.008;2023-02-28T03:10:51;2.93;;;1.83;;
48076;SDS011;33854;57.708;12.008;2023-02-28T03:13:37;5.78;;;2.83;;
48076;SDS011;33854;57.708;12.008;2023-02-28T03:27:28;5.50;;;2.50;;
48076;SDS011;33854;57.708;12.008;2023-02-28T03:30:03;5.18;;;3.08;;
48076;SDS011;33854;57.708;12.008;2023-02-28T03:32:39;4.70;;;2.95;;
48076;SDS011;33854;57.708;12.008;2023-02-28T03:35:14;8.35;;;3.00;;
48076;SDS011;33854;57.708;12.008;2023-02-28T03:37:47;6.32;;;2.25;;
48076;SDS011;33854;57.708;12.008;2023-02-28T03:40:16;6.13;;;2.28;;
48076;SDS011;33854;57.708;12.008;2023-02-28T03:42:46;5.20;;;2.55;;
48076;SDS011;33854;57.708;12.008;2023-02-28T03:48:15;3.63;;;2.27;;
48076;SDS011;33854;57.708;12.008;2023-02-28T03:50:38;4.65;;;2.60;;
48076;SDS011;33854;57.708;12.008;2023-02-28T03:55:50;5.28;;;2.70;;
48076;SDS011;33854;57.708;12.008;2023-02-28T04:01:07;5.70;;;3.22;;
48076;SDS011;33854;57.708;12.008;2023-02-28T04:03:36;3.78;;;2.20;;
48076;SDS011;33854;57.708;12.008;2023-02-28T04:06:03;4.13;;;2.33;;
48076;SDS011;33854;57.708;12.008;2023-02-28T04:08:32;4.60;;;2.30;;
48076;SDS011;33854;57.708;12.008;2023-02-28T04:10:59;4.70;;;2.87;;
48076;SDS011;33854;57.708;12.008;2023-02-28T04:13:29;6.15;;;2.47;;
48076;SDS011;33854;57.708;12.008;2023-02-28T04:15:54;4.67;;;1.63;;
48076;SDS011;33854;57.708;12.008;2023-02-28T04:18:20;2.93;;;2.47;;
48076;SDS011;33854;57.708;12.008;2023-02-28T04:20:45;4.80;;;2.70;;
48076;SDS011;33854;57.708;12.008;2023-02-28T04:23:11;4.17;;;2.40;;
48076;SDS011;33854;57.708;12.008;2023-02-28T04:25:36;3.23;;;2.23;;
48076;SDS011;33854;57.708;12.008;2023-02-28T04:28:01;6.70;;;2.33;;
48076;SDS011;33854;57.708;12.008;2023-02-28T04:30:27;2.83;;;2.00;;
48076;SDS011;33854;57.708;12.008;2023-02-28T04:32:52;3.67;;;2.20;;
48076;SDS011;33854;57.708;12.008;2023-02-28T04:35:18;5.27;;;2.50;;
48076;SDS011;33854;57.708;12.008;2023-02-28T04:37:43;6.23;;;2.47;;
48076;SDS011;33854;57.708;12.008;2023-02-28T04:40:08;5.90;;;2.20;;
48076;SDS011;33854;57.708;12.008;2023-02-28T04:42:34;5.22;;;2.38;;
48076;SDS011;33854;57.708;12.008;2023-02-28T04:45:01;7.97;;;2.57;;
48076;SDS011;33854;57.708;12.008;2023-02-28T04:47:27;5.93;;;2.75;;
48076;SDS011;33854;57.708;12.008;2023-02-28T04:49:53;4.50;;;2.53;;
48076;SDS011;33854;57.708;12.008;2023-02-28T04:52:18;5.03;;;1.90;;
48076;SDS011;33854;57.708;12.008;2023-02-28T04:54:44;5.60;;;2.80;;
48076;SDS011;33854;57.708;12.008;2023-02-28T04:57:10;4.73;;;2.43;;
48076;SDS011;33854;57.708;12.008;2023-02-28T04:59:35;3.73;;;2.43;;
48076;SDS011;33854;57.708;12.008;2023-02-28T05:02:01;3.90;;;2.40;;
48076;SDS011;33854;57.708;12.008;2023-02-28T05:04:31;6.45;;;2.03;;
48076;SDS011;33854;57.708;12.008;2023-02-28T05:06:59;5.75;;;2.42;;
48076;SDS011;33854;57.708;12.008;2023-02-28T05:09:25;6.10;;;2.42;;
48076;SDS011;33854;57.708;12.008;2023-02-28T05:11:50;4.13;;;2.03;;
48076;SDS011;33854;57.708;12.008;2023-02-28T05:14:16;4.87;;;2.43;;
48076;SDS011;33854;57.708;12.008;2023-02-28T05:16:41;5.17;;;2.27;;
48076;SDS011;33854;57.708;12.008;2023-02-28T05:19:07;12.10;;;5.03;;
48076;SDS011;33854;57.708;12.008;2023-02-28T05:21:33;60.83;;;26.97;;
48076;SDS011;33854;57.708;12.008;2023-02-28T05:24:06;14.35;;;7.80;;
48076;SDS011;33854;57.708;12.008;2023-02-28T05:26:35;7.85;;;4.47;;
48076;SDS011;33854;57.708;12.008;2023-02-28T05:29:02;7.72;;;3.10;;
48076;SDS011;33854;57.708;12.008;2023-02-28T05:31:28;5.33;;;3.40;;
48076;SDS011;33854;57.708;12.008;2023-02-28T05:33:53;6.10;;;2.50;;
48076;SDS011;33854;57.708;12.008;2023-02-28T05:36:19;4.40;;;2.50;;
48076;SDS011;33854;57.708;12.008;2023-02-28T05:38:48;5.40;;;2.22;;
48076;SDS011;33854;57.708;12.008;2023-02-28T05:41:15;8.77;;;2.13;;
48076;SDS011;33854;57.708;12.008;2023-02-28T05:43:41;9.23;;;2.22;;
48076;SDS011;33854;57.708;12.008;2023-02-28T05:46:07;6.40;;;2.13;;
48076;SDS011;33854;57.708;12.008;2023-02-28T05:48:35;5.88;;;2.15;;
48076;SDS011;33854;57.708;12.008;2023-02-28T05:55:52;3.33;;;2.00;;
48076;SDS011;33854;57.708;12.008;2023-02-28T05:58:18;6.73;;;2.53;;
48076;SDS011;33854;57.708;12.008;2023-02-28T06:00:43;3.83;;;2.27;;
48076;SDS011;33854;57.708;12.008;2023-02-28T06:03:09;8.90;;;2.80;;
48076;SDS011;33854;57.708;12.008;2023-02-28T06:05:34;5.37;;;2.57;;
48076;SDS011;33854;57.708;12.008;2023-02-28T06:08:00;8.80;;;2.03;;
48076;SDS011;33854;57.708;12.008;2023-02-28T06:10:25;2.67;;;1.60;;
48076;SDS011;33854;57.708;12.008;2023-02-28T06:12:51;8.17;;;2.33;;
48076;SDS011;33854;57.708;12.008;2023-02-28T06:15:16;4.73;;;2.10;;
48076;SDS011;33854;57.708;12.008;2023-02-28T06:17:42;4.50;;;2.47;;
48076;SDS011;33854;57.708;12.008;2023-02-28T06:20:09;33.50;;;13.10;;
48076;SDS011;33854;57.708;12.008;2023-02-28T06:22:37;9.85;;;5.10;;
48076;SDS011;33854;57.708;12.008;2023-02-28T06:25:04;5.43;;;3.42;;
48076;SDS011;33854;57.708;12.008;2023-02-28T06:27:31;7.40;;;2.70;;
48076;SDS011;33854;57.708;12.008;2023-02-28T06:29:57;5.28;;;3.13;;
48076;SDS011;33854;57.708;12.008;2023-02-28T06:32:23;14.17;;;2.33;;
48076;SDS011;33854;57.708;12.008;2023-02-28T06:34:48;5.37;;;2.70;;
48076;SDS011;33854;57.708;12.008;2023-02-28T06:39:41;4.65;;;2.00;;
48076;SDS011;33854;57.708;12.008;2023-02-28T06:42:06;8.07;;;2.23;;
48076;SDS011;33854;57.708;12.008;2023-02-28T06:44:31;4.37;;;2.37;;
48076;SDS011;33854;57.708;12.008;2023-02-28T06:47:01;10.60;;;2.45;;
48076;SDS011;33854;57.708;12.008;2023-02-28T06:49:28;8.13;;;2.50;;
48076;SDS011;33854;57.708;12.008;2023-02-28T06:51:57;5.93;;;2.22;;
48076;SDS011;33854;57.708;12.008;2023-02-28T06:54:23;3.03;;;1.37;;
48076;SDS011;33854;57.708;12.008;2023-02-28T06:56:49;3.33;;;2.00;;
48076;SDS011;33854;57.708;12.008;2023-02-28T06:59:15;3.27;;;1.90;;
48076;SDS011;33854;57.708;12.008;2023-02-28T07:01:41;6.30;;;1.60;;
48076;SDS011;33854;57.708;12.008;2023-02-28T07:04:06;5.47;;;2.50;;
48076;SDS011;33854;57.708;12.008;2023-02-28T07:06:32;5.60;;;1.80;;
48076;SDS011;33854;57.708;12.008;2023-02-28T07:08:57;14.80;;;2.17;;
48076;SDS011;33854;57.708;12.008;2023-02-28T07:11:24;7.83;;;1.87;;
48076;SDS011;33854;57.708;12.008;2023-02-28T07:13:54;8.07;;;4.70;;
48076;SDS011;33854;57.708;12.008;2023-02-28T07:16:21;17.55;;;7.90;;
48076;SDS011;33854;57.708;12.008;2023-02-28T07:18:47;12.70;;;3.67;;
48076;SDS011;33854;57.708;12.008;2023-02-28T07:21:12;27.60;;;3.70;;
48076;SDS011;33854;57.708;12.008;2023-02-28T07:23:39;8.10;;;3.55;;
48076;SDS011;33854;57.708;12.008;2023-02-28T07:28:32;28.98;;;13.52;;
48076;SDS011;33854;57.708;12.008;2023-02-28T07:31:02;12.03;;;4.30;;
48076;SDS011;33854;57.708;12.008;2023-02-28T07:33:31;7.63;;;3.70;;
48076;SDS011;33854;57.708;12.008;2023-02-28T07:36:03;13.47;;;3.50;;
48076;SDS011;33854;57.708;12.008;2023-02-28T07:38:33;17.67;;;4.57;;
48076;SDS011;33854;57.708;12.008;2023-02-28T07:40:59;13.30;;;3.72;;
48076;SDS011;33854;57.708;12.008;2023-02-28T07:43:25;13.30;;;4.83;;
48076;SDS011;33854;57.708;12.008;2023-02-28T07:45:50;13.23;;;4.30;;
48076;SDS011;33854;57.708;12.008;2023-02-28T07:48:16;17.67;;;5.13;;
48076;SDS011;33854;57.708;12.008;2023-02-28T07:50:41;11.47;;;4.13;;
48076;SDS011;33854;57.708;12.008;2023-02-28T07:53:06;10.50;;;5.07;;
48076;SDS011;33854;57.708;12.008;2023-02-28T07:55:32;8.53;;;4.97;;
48076;SDS011;33854;57.708;12.008;2023-02-28T07:57:57;14.90;;;5.60;;
48076;SDS011;33854;57.708;12.008;2023-02-28T08:00:23;10.17;;;5.50;;
48076;SDS011;33854;57.708;12.008;2023-02-28T08:02:49;10.73;;;5.60;;
48076;SDS011;33854;57.708;12.008;2023-02-28T08:05:14;11.57;;;5.60;;
48076;SDS011;33854;57.708;12.008;2023-02-28T08:07:40;16.23;;;6.97;;
48076;SDS011;33854;57.708;12.008;2023-02-28T08:10:06;23.47;;;11.67;;
48076;SDS011;33854;57.708;12.008;2023-02-28T08:12:33;16.52;;;6.47;;
48076;SDS011;33854;57.708;12.008;2023-02-28T08:14:59;18.40;;;6.63;;
48076;SDS011;33854;57.708;12.008;2023-02-28T08:17:24;12.97;;;6.10;;
48076;SDS011;33854;57.708;12.008;2023-02-28T08:19:50;16.37;;;6.90;;
48076;SDS011;33854;57.708;12.008;2023-02-28T08:22:15;17.47;;;6.60;;
48076;SDS011;33854;57.708;12.008;2023-02-28T08:24:41;19.03;;;6.37;;
48076;SDS011;33854;57.708;12.008;2023-02-28T08:27:07;17.98;;;6.70;;
48076;SDS011;33854;57.708;12.008;2023-02-28T08:29:33;16.60;;;6.10;;
48076;SDS011;33854;57.708;12.008;2023-02-28T08:31:58;15.50;;;7.07;;
48076;SDS011;33854;57.708;12.008;2023-02-28T08:34:24;17.13;;;7.37;;
48076;SDS011;33854;57.708;12.008;2023-02-28T08:36:49;22.10;;;8.03;;
48076;SDS011;33854;57.708;12.008;2023-02-28T08:39:15;19.97;;;7.13;;
48076;SDS011;33854;57.708;12.008;2023-02-28T08:41:41;21.20;;;7.37;;
48076;SDS011;33854;57.708;12.008;2023-02-28T08:44:09;22.35;;;6.78;;
48076;SDS011;33854;57.708;12.008;2023-02-28T08:46:34;18.33;;;7.00;;
48076;SDS011;33854;57.708;12.008;2023-02-28T08:49:00;26.10;;;8.00;;
48076;SDS011;33854;57.708;12.008;2023-02-28T08:53:53;20.90;;;7.82;;
48076;SDS011;33854;57.708;12.008;2023-02-28T08:56:20;21.02;;;7.72;;
48076;SDS011;33854;57.708;12.008;2023-02-28T08:58:47;24.92;;;7.93;;
48076;SDS011;33854;57.708;12.008;2023-02-28T09:01:20;26.38;;;9.50;;
48076;SDS011;33854;57.708;12.008;2023-02-28T09:03:49;24.98;;;9.23;;
48076;SDS011;33854;57.708;12.008;2023-02-28T09:06:15;22.25;;;8.50;;
48076;SDS011;33854;57.708;12.008;2023-02-28T09:08:42;23.52;;;8.63;;
48076;SDS011;33854;57.708;12.008;2023-02-28T09:11:08;32.03;;;9.93;;
48076;SDS011;33854;57.708;12.008;2023-02-28T09:13:34;25.02;;;9.32;;
48076;SDS011;33854;57.708;12.008;2023-02-28T09:16:00;26.23;;;9.60;;
48076;SDS011;33854;57.708;12.008;2023-02-28T09:18:27;25.50;;;9.10;;
48076;SDS011;33854;57.708;12.008;2023-02-28T09:20:53;20.38;;;7.88;;
48076;SDS011;33854;57.708;12.008;2023-02-28T09:23:19;23.53;;;9.57;;
48076;SDS011;33854;57.708;12.008;2023-02-28T09:25:46;27.57;;;10.17;;
48076;SDS011;33854;57.708;12.008;2023-02-28T09:28:12;27.75;;;11.15;;
48076;SDS011;33854;57.708;12.008;2023-02-28T09:30:40;25.65;;;10.07;;
48076;SDS011;33854;57.708;12.008;2023-02-28T09:33:06;27.20;;;10.37;;
48076;SDS011;33854;57.708;12.008;2023-02-28T09:35:31;28.93;;;10.70;;
48076;SDS011;33854;57.708;12.008;2023-02-28T09:37:57;44.93;;;19.90;;
48076;SDS011;33854;57.708;12.008;2023-02-28T09:40:24;46.42;;;18.92;;
48076;SDS011;33854;57.708;12.008;2023-02-28T09:42:51;29.40;;;12.63;;
48076;SDS011;33854;57.708;12.008;2023-02-28T09:45:30;28.33;;;10.82;;
48076;SDS011;33854;57.708;12.008;2023-02-28T09:48:06;28.73;;;11.48;;
48076;SDS011;33854;57.708;12.008;2023-02-28T09:50:41;31.23;;;11.27;;
48076;SDS011;33854;57.708;12.008;2023-02-28T09:53:20;26.60;;;10.05;;
48076;SDS011;33854;57.708;12.008;2023-02-28T09:55:53;23.88;;;10.48;;
48076;SDS011;33854;57.708;12.008;2023-02-28T09:58:26;25.67;;;10.75;;
48076;SDS011;33854;57.708;12.008;2023-02-28T10:01:00;24.15;;;11.27;;
48076;SDS011;33854;57.708;12.008;2023-02-28T10:06:19;25.52;;;10.10;;
48076;SDS011;33854;57.708;12.008;2023-02-28T10:11:26;37.08;;;12.73;;
48076;SDS011;33854;57.708;12.008;2023-02-28T10:21:56;32.75;;;14.02;;
48076;SDS011;33854;57.708;12.008;2023-02-28T10:24:39;32.85;;;14.45;;
48076;SDS011;33854;57.708;12.008;2023-02-28T10:27:20;34.33;;;13.77;;
48076;SDS011;33854;57.708;12.008;2023-02-28T10:29:57;34.65;;;14.15;;
48076;SDS011;33854;57.708;12.008;2023-02-28T10:32:28;27.83;;;12.02;;
48076;SDS011;33854;57.708;12.008;2023-02-28T10:34:57;26.95;;;12.18;;
48076;SDS011;33854;57.708;12.008;2023-02-28T10:37:26;34.85;;;13.75;;
48076;SDS011;33854;57.708;12.008;2023-02-28T10:39:53;28.65;;;12.20;;
48076;SDS011;33854;57.708;12.008;2023-02-28T10:42:25;25.50;;;13.00;;
48076;SDS011;33854;57.708;12.008;2023-02-28T10:45:05;27.83;;;11.45;;
48076;SDS011;33854;57.708;12.008;2023-02-28T10:47:48;22.27;;;10.98;;
48076;SDS011;33854;57.708;12.008;2023-02-28T10:50:34;26.45;;;12.00;;
48076;SDS011;33854;57.708;12.008;2023-02-28T10:58:26;25.75;;;10.07;;
48076;SDS011;33854;57.708;12.008;2023-02-28T11:00:55;25.67;;;10.82;;
48076;SDS011;33854;57.708;12.008;2023-02-28T11:03:25;17.77;;;9.43;;
48076;SDS011;33854;57.708;12.008;2023-02-28T11:05:55;18.50;;;8.82;;
48076;SDS011;33854;57.708;12.008;2023-02-28T11:08:22;18.58;;;9.32;;
48076;SDS011;33854;57.708;12.008;2023-02-28T11:10:57;21.77;;;9.90;;
48076;SDS011;33854;57.708;12.008;2023-02-28T11:13:31;19.00;;;9.52;;
48076;SDS011;33854;57.708;12.008;2023-02-28T11:16:00;18.65;;;8.70;;
48076;SDS011;33854;57.708;12.008;2023-02-28T11:18:29;16.83;;;9.07;;
48076;SDS011;33854;57.708;12.008;2023-02-28T11:20:59;16.67;;;8.38;;
48076;SDS011;33854;57.708;12.008;2023-02-28T11:23:28;15.23;;;8.23;;
48076;SDS011;33854;57.708;12.008;2023-02-28T11:25:58;19.63;;;8.10;;
48076;SDS011;33854;57.708;12.008;2023-02-28T11:28:29;16.73;;;8.13;;
48076;SDS011;33854;57.708;12.008;2023-02-28T11:33:28;19.70;;;9.02;;
48076;SDS011;33854;57.708;12.008;2023-02-28T11:36:10;18.35;;;8.13;;
48076;SDS011;33854;57.708;12.008;2023-02-28T11:38:37;24.27;;;8.23;;
48076;SDS011;33854;57.708;12.008;2023-02-28T11:43:57;15.90;;;8.25;;
48076;SDS011;33854;57.708;12.008;2023-02-28T11:46:50;18.55;;;7.45;;
48076;SDS011;33854;57.708;12.008;2023-02-28T11:57:30;16.67;;;9.23;;
48076;SDS011;33854;57.708;12.008;2023-02-28T12:00:08;16.58;;;8.40;;
48076;SDS011;33854;57.708;12.008;2023-02-28T12:03:06;22.27;;;8.20;;
48076;SDS011;33854;57.708;12.008;2023-02-28T12:14:25;10.15;;;6.07;;
48076;SDS011;33854;57.708;12.008;2023-02-28T12:22:35;12.15;;;5.72;;
48076;SDS011;33854;57.708;12.008;2023-02-28T12:30:31;12.27;;;6.00;;
48076;SDS011;33854;57.708;12.008;2023-02-28T12:38:23;15.13;;;6.35;;
48076;SDS011;33854;57.708;12.008;2023-02-28T12:41:05;15.40;;;5.88;;
48076;SDS011;33854;57.708;12.008;2023-02-28T12:43:45;15.27;;;6.38;;
48076;SDS011;33854;57.708;12.008;2023-02-28T12:46:17;14.00;;;6.75;;
48076;SDS011;33854;57.708;12.008;2023-02-28T12:48:52;20.13;;;7.53;;
48076;SDS011;33854;57.708;12.008;2023-02-28T12:51:21;12.77;;;6.22;;
48076;SDS011;33854;57.708;12.008;2023-02-28T12:59:51;14.50;;;6.78;;
48076;SDS011;33854;57.708;12.008;2023-02-28T13:10:39;14.23;;;5.63;;
48076;SDS011;33854;57.708;12.008;2023-02-28T13:13:14;13.00;;;5.57;;
48076;SDS011;33854;57.708;12.008;2023-02-28T13:34:31;14.07;;;4.55;;
48076;SDS011;33854;57.708;12.008;2023-02-28T13:37:43;8.88;;;4.20;;
48076;SDS011;33854;57.708;12.008;2023-02-28T13:39:56;12.65;;;4.97;;
48076;SDS011;33854;57.708;12.008;2023-02-28T13:47:51;16.80;;;4.22;;
48076;SDS011;33854;57.708;12.008;2023-02-28T13:50:21;11.38;;;4.28;;
48076;SDS011;33854;57.708;12.008;2023-02-28T14:07:08;14.63;;;4.55;;
48076;SDS011;33854;57.708;12.008;2023-02-28T14:09:41;17.42;;;3.78;;
48076;SDS011;33854;57.708;12.008;2023-02-28T14:18:03;10.48;;;3.25;;
48076;SDS011;33854;57.708;12.008;2023-02-28T14:20:42;9.90;;;3.10;;
48076;SDS011;33854;57.708;12.008;2023-02-28T14:29:26;10.45;;;3.40;;
48076;SDS011;33854;57.708;12.008;2023-02-28T14:32:18;7.18;;;2.95;;
48076;SDS011;33854;57.708;12.008;2023-02-28T14:34:52;13.68;;;3.60;;
48076;SDS011;33854;57.708;12.008;2023-02-28T14:39:53;12.65;;;3.22;;
48076;SDS011;33854;57.708;12.008;2023-02-28T14:42:27;12.63;;;3.28;;
48076;SDS011;33854;57.708;12.008;2023-02-28T14:44:58;12.68;;;3.50;;
48076;SDS011;33854;57.708;12.008;2023-02-28T14:47:25;12.20;;;3.30;;
48076;SDS011;33854;57.708;12.008;2023-02-28T14:49:55;9.70;;;3.00;;
48076;SDS011;33854;57.708;12.008;2023-02-28T14:52:26;16.35;;;9.10;;
48076;SDS011;33854;57.708;12.008;2023-02-28T14:54:55;11.27;;;2.95;;
48076;SDS011;33854;57.708;12.008;2023-02-28T14:57:39;9.70;;;3.00;;
48076;SDS011;33854;57.708;12.008;2023-02-28T15:02:46;6.63;;;2.33;;
48076;SDS011;33854;57.708;12.008;2023-02-28T15:07:37;4.17;;;2.50;;
48076;SDS011;33854;57.708;12.008;2023-02-28T15:10:07;8.13;;;2.50;;
48076;SDS011;33854;57.708;12.008;2023-02-28T15:12:54;10.98;;;2.67;;
48076;SDS011;33854;57.708;12.008;2023-02-28T15:16:09;12.20;;;2.92;;
48076;SDS011;33854;57.708;12.008;2023-02-28T15:18:11;10.00;;;2.67;;
48076;SDS011;33854;57.708;12.008;2023-02-28T15:20:51;13.50;;;3.17;;
48076;SDS011;33854;57.708;12.008;2023-02-28T15:23:17;8.63;;;2.60;;
48076;SDS011;33854;57.708;12.008;2023-02-28T15:25:45;10.05;;;2.53;;
48076;SDS011;33854;57.708;12.008;2023-02-28T15:28:13;10.70;;;2.50;;
48076;SDS011;33854;57.708;12.008;2023-02-28T15:30:49;16.83;;;2.50;;
48076;SDS011;33854;57.708;12.008;2023-02-28T15:33:19;11.57;;;2.30;;
48076;SDS011;33854;57.708;12.008;2023-02-28T15:35:47;13.02;;;2.30;;
48076;SDS011;33854;57.708;12.008;2023-02-28T15:40:58;12.50;;;3.15;;
48076;SDS011;33854;57.708;12.008;2023-02-28T15:43:25;12.45;;;2.90;;
48076;SDS011;33854;57.708;12.008;2023-02-28T15:45:56;13.40;;;2.25;;
48076;SDS011;33854;57.708;12.008;2023-02-28T15:48:27;13.13;;;2.67;;
48076;SDS011;33854;57.708;12.008;2023-02-28T15:53:41;11.30;;;2.33;;
48076;SDS011;33854;57.708;12.008;2023-02-28T15:56:28;9.82;;;2.28;;
48076;SDS011;33854;57.708;12.008;2023-02-28T15:59:02;9.25;;;1.90;;
48076;SDS011;33854;57.708;12.008;2023-02-28T16:01:31;3.97;;;1.85;;
48076;SDS011;33854;57.708;12.008;2023-02-28T16:04:15;9.45;;;2.35;;
48076;SDS011;33854;57.708;12.008;2023-02-28T16:06:43;8.52;;;2.17;;
48076;SDS011;33854;57.708;12.008;2023-02-28T16:09:25;9.23;;;2.67;;
48076;SDS011;33854;57.708;12.008;2023-02-28T16:11:52;20.90;;;11.23;;
48076;SDS011;33854;57.708;12.008;2023-02-28T16:14:21;11.95;;;3.65;;
48076;SDS011;33854;57.708;12.008;2023-02-28T16:16:50;10.40;;;2.58;;
48076;SDS011;33854;57.708;12.008;2023-02-28T16:19:18;6.78;;;2.40;;
48076;SDS011;33854;57.708;12.008;2023-02-28T16:21:43;11.90;;;2.40;;
48076;SDS011;33854;57.708;12.008;2023-02-28T16:24:09;6.00;;;2.53;;
48076;SDS011;33854;57.708;12.008;2023-02-28T16:26:35;7.87;;;2.07;;
48076;SDS011;33854;57.708;12.008;2023-02-28T16:29:04;8.98;;;2.67;;
48076;SDS011;33854;57.708;12.008;2023-02-28T16:31:30;10.70;;;2.15;;
48076;SDS011;33854;57.708;12.008;2023-02-28T16:34:00;14.00;;;3.03;;
48076;SDS011;33854;57.708;12.008;2023-02-28T16:36:25;10.40;;;2.70;;
48076;SDS011;33854;57.708;12.008;2023-02-28T16:38:51;8.43;;;2.67;;
48076;SDS011;33854;57.708;12.008;2023-02-28T16:41:21;9.67;;;2.03;;
48076;SDS011;33854;57.708;12.008;2023-02-28T16:43:50;11.50;;;3.45;;
48076;SDS011;33854;57.708;12.008;2023-02-28T16:46:17;10.27;;;2.83;;
48076;SDS011;33854;57.708;12.008;2023-02-28T16:51:13;15.35;;;5.15;;
48076;SDS011;33854;57.708;12.008;2023-02-28T16:53:40;14.68;;;3.25;;
48076;SDS011;33854;57.708;12.008;2023-02-28T16:56:06;15.50;;;3.23;;
48076;SDS011;33854;57.708;12.008;2023-02-28T16:58:36;10.43;;;2.70;;
48076;SDS011;33854;57.708;12.008;2023-02-28T17:01:02;13.80;;;3.00;;
48076;SDS011;33854;57.708;12.008;2023-02-28T17:03:28;15.93;;;3.60;;
48076;SDS011;33854;57.708;12.008;2023-02-28T17:05:55;10.60;;;2.95;;
48076;SDS011;33854;57.708;12.008;2023-02-28T17:08:21;13.37;;;3.10;;
48076;SDS011;33854;57.708;12.008;2023-02-28T17:10:46;11.33;;;3.63;;
48076;SDS011;33854;57.708;12.008;2023-02-28T17:13:12;5.93;;;3.17;;
48076;SDS011;33854;57.708;12.008;2023-02-28T17:15:37;12.33;;;3.57;;
48076;SDS011;33854;57.708;12.008;2023-02-28T17:18:04;8.75;;;3.80;;
48076;SDS011;33854;57.708;12.008;2023-02-28T17:20:30;9.15;;;3.58;;
48076;SDS011;33854;57.708;12.008;2023-02-28T17:22:55;8.93;;;3.60;;
48076;SDS011;33854;57.708;12.008;2023-02-28T17:25:22;4.60;;;2.90;;
48076;SDS011;33854;57.708;12.008;2023-02-28T17:27:48;6.53;;;3.03;;
48076;SDS011;33854;57.708;12.008;2023-02-28T17:32:48;4.97;;;2.47;;
48076;SDS011;33854;57.708;12.008;2023-02-28T17:35:13;5.13;;;2.83;;
48076;SDS011;33854;57.708;12.008;2023-02-28T17:37:39;6.57;;;3.53;;
48076;SDS011;33854;57.708;12.008;2023-02-28T17:40:05;5.93;;;2.65;;
48076;SDS011;33854;57.708;12.008;2023-02-28T17:42:32;6.40;;;2.53;;
48076;SDS011;33854;57.708;12.008;2023-02-28T17:44:57;7.13;;;2.23;;
48076;SDS011;33854;57.708;12.008;2023-02-28T17:47:23;3.40;;;2.57;;